sensor_id;sensor_type;location;lat;lon;timestamp;temperature;humidity
18839;DHT22;9548;56.920;14.804;2023-03-13T00:01:49;-0.50;99.90
18839;DHT22;9548;56.920;14.804;2023-03-13T00:04:18;-0.50;99.90
18839;DHT22;9548;56.920;14.804;2023-03-13T00:06:45;-0.40;99.90
18839;DHT22;9548;56.920;14.804;2023-03-13T00:09:14;-0.40;99.90
18839;DHT22;9548;56.920;14.804;2023-03-13T00:11:41;-0.30;99.90
18839;DHT22;9548;56.920;14.804;2023-03-13T00:14:08;-0.30;99.90
18839;DHT22;9548;56.920;14.804;2023-03-13T00:16:36;-0.20;99.90
18839;DHT22;9548;56.920;14.804;2023-03-13T00:19:04;-0.20;99.90
18839;DHT22;9548;56.920;14.804;2023-03-13T00:21:33;-0.20;99.90
18839;DHT22;9548;56.920;14.804;2023-03-13T00:24:02;-0.20;99.90
18839;DHT22;9548;56.920;14.804;2023-03-13T00:26:29;-0.10;99.90
18839;DHT22;9548;56.920;14.804;2023-03-13T00:28:56;-0.10;99.90
18839;DHT22;9548;56.920;14.804;2023-03-13T00:31:24;-0.10;99.90
18839;DHT22;9548;56.920;14.804;2023-03-13T00:33:53;-0.10;99.90
18839;DHT22;9548;56.920;14.804;2023-03-13T00:36:22;-0.10;99.90
18839;DHT22;9548;56.920;14.804;2023-03-13T00:38:51;0.00;99.90
18839;DHT22;9548;56.920;14.804;2023-03-13T00:41:20;-0.10;99.90
18839;DHT22;9548;56.920;14.804;2023-03-13T00:43:48;-0.10;99.90
18839;DHT22;9548;56.920;14.804;2023-03-13T00:46:17;-0.10;99.90
18839;DHT22;9548;56.920;14.804;2023-03-13T00:48:44;-0.20;99.90
18839;DHT22;9548;56.920;14.804;2023-03-13T00:51:12;-0.20;99.90
18839;DHT22;9548;56.920;14.804;2023-03-13T00:53:39;-0.20;99.90
18839;DHT22;9548;56.920;14.804;2023-03-13T00:56:09;-0.20;99.90
18839;DHT22;9548;56.920;14.804;2023-03-13T00:58:38;-0.30;99.90
18839;DHT22;9548;56.920;14.804;2023-03-13T01:01:09;-0.30;99.90
18839;DHT22;9548;56.920;14.804;2023-03-13T01:03:37;-0.30;99.90
18839;DHT22;9548;56.920;14.804;2023-03-13T01:06:07;-0.40;99.90
18839;DHT22;9548;56.920;14.804;2023-03-13T01:08:34;-0.40;99.90
18839;DHT22;9548;56.920;14.804;2023-03-13T01:11:04;-0.40;99.90
18839;DHT22;9548;56.920;14.804;2023-03-13T01:13:32;-0.50;99.90
18839;DHT22;9548;56.920;14.804;2023-03-13T01:16:02;-0.50;99.90
18839;DHT22;9548;56.920;14.804;2023-03-13T01:18:29;-0.50;99.90
18839;DHT22;9548;56.920;14.804;2023-03-13T01:20:56;-0.50;99.90
18839;DHT22;9548;56.920;14.804;2023-03-13T01:23:23;-0.50;99.90
18839;DHT22;9548;56.920;14.804;2023-03-13T01:25:50;-0.50;99.90
18839;DHT22;9548;56.920;14.804;2023-03-13T01:28:17;-0.50;99.90
18839;DHT22;9548;56.920;14.804;2023-03-13T01:30:45;-0.50;99.90
18839;DHT22;9548;56.920;14.804;2023-03-13T01:33:12;-0.60;99.90
18839;DHT22;9548;56.920;14.804;2023-03-13T01:35:39;-0.60;99.90
18839;DHT22;9548;56.920;14.804;2023-03-13T01:38:06;-0.60;99.90
18839;DHT22;9548;56.920;14.804;2023-03-13T01:40:38;-0.60;99.90
18839;DHT22;9548;56.920;14.804;2023-03-13T01:43:15;-0.60;99.90
18839;DHT22;9548;56.920;14.804;2023-03-13T01:46:09;-0.60;99.90
18839;DHT22;9548;56.920;14.804;2023-03-13T01:48:42;-0.50;99.90
18839;DHT22;9548;56.920;14.804;2023-03-13T01:51:13;-0.50;99.90
18839;DHT22;9548;56.920;14.804;2023-03-13T01:53:44;-0.60;99.90
18839;DHT22;9548;56.920;14.804;2023-03-13T01:56:19;-0.50;99.90
18839;DHT22;9548;56.920;14.804;2023-03-13T01:58:48;-0.50;99.90
18839;DHT22;9548;56.920;14.804;2023-03-13T02:01:18;-0.50;99.90
18839;DHT22;9548;56.920;14.804;2023-03-13T02:03:46;-0.50;99.90
18839;DHT22;9548;56.920;14.804;2023-03-13T02:06:13;-0.40;99.90
18839;DHT22;9548;56.920;14.804;2023-03-13T02:08:43;-0.40;99.90
18839;DHT22;9548;56.920;14.804;2023-03-13T02:11:18;-0.40;99.90
18839;DHT22;9548;56.920;14.804;2023-03-13T02:13:47;-0.40;99.90
18839;DHT22;9548;56.920;14.804;2023-03-13T02:16:18;-0.30;99.90
18839;DHT22;9548;56.920;14.804;2023-03-13T02:18:46;-0.30;99.90
18839;DHT22;9548;56.920;14.804;2023-03-13T02:21:23;-0.30;99.90
18839;DHT22;9548;56.920;14.804;2023-03-13T02:23:56;-0.20;99.90
18839;DHT22;9548;56.920;14.804;2023-03-13T02:26:26;-0.20;99.90
18839;DHT22;9548;56.920;14.804;2023-03-13T02:28:53;-0.10;99.90
18839;DHT22;9548;56.920;14.804;2023-03-13T02:31:20;-0.10;99.90
18839;DHT22;9548;56.920;14.804;2023-03-13T02:33:47;-0.10;99.90
18839;DHT22;9548;56.920;14.804;2023-03-13T02:36:15;-0.10;99.90
18839;DHT22;9548;56.920;14.804;2023-03-13T02:38:47;-0.10;99.90
18839;DHT22;9548;56.920;14.804;2023-03-13T02:41:16;0.00;99.90
18839;DHT22;9548;56.920;14.804;2023-03-13T02:43:45;0.00;99.90
18839;DHT22;9548;56.920;14.804;2023-03-13T02:46:13;0.00;99.90
18839;DHT22;9548;56.920;14.804;2023-03-13T02:48:42;0.00;99.90
18839;DHT22;9548;56.920;14.804;2023-03-13T02:51:16;0.00;99.90
18839;DHT22;9548;56.920;14.804;2023-03-13T02:53:44;0.00;99.90
18839;DHT22;9548;56.920;14.804;2023-03-13T02:56:13;0.00;99.90
18839;DHT22;9548;56.920;14.804;2023-03-13T02:58:41;0.10;99.90
18839;DHT22;9548;56.920;14.804;2023-03-13T03:01:09;0.10;99.90
18839;DHT22;9548;56.920;14.804;2023-03-13T03:03:36;0.10;99.90
18839;DHT22;9548;56.920;14.804;2023-03-13T03:06:06;0.10;99.90
18839;DHT22;9548;56.920;14.804;2023-03-13T03:08:33;0.20;99.90
18839;DHT22;9548;56.920;14.804;2023-03-13T03:11:00;0.20;99.90
18839;DHT22;9548;56.920;14.804;2023-03-13T03:13:27;0.20;99.90
18839;DHT22;9548;56.920;14.804;2023-03-13T03:15:54;0.20;99.90
18839;DHT22;9548;56.920;14.804;2023-03-13T03:18:23;0.30;99.90
18839;DHT22;9548;56.920;14.804;2023-03-13T03:20:49;0.30;99.90
18839;DHT22;9548;56.920;14.804;2023-03-13T03:23:16;0.30;99.90
18839;DHT22;9548;56.920;14.804;2023-03-13T03:25:43;0.30;99.90
18839;DHT22;9548;56.920;14.804;2023-03-13T03:28:10;0.30;99.90
18839;DHT22;9548;56.920;14.804;2023-03-13T03:30:37;0.30;99.90
18839;DHT22;9548;56.920;14.804;2023-03-13T03:33:04;0.30;99.90
18839;DHT22;9548;56.920;14.804;2023-03-13T03:35:32;0.30;99.90
18839;DHT22;9548;56.920;14.804;2023-03-13T03:38:03;0.30;99.90
18839;DHT22;9548;56.920;14.804;2023-03-13T03:40:30;0.40;99.90
18839;DHT22;9548;56.920;14.804;2023-03-13T03:42:57;0.40;99.90
18839;DHT22;9548;56.920;14.804;2023-03-13T03:45:25;0.40;99.90
18839;DHT22;9548;56.920;14.804;2023-03-13T03:47:51;0.40;99.90
18839;DHT22;9548;56.920;14.804;2023-03-13T03:50:18;0.40;99.90
18839;DHT22;9548;56.920;14.804;2023-03-13T03:52:47;0.40;99.90
18839;DHT22;9548;56.920;14.804;2023-03-13T03:55:14;0.40;99.90
18839;DHT22;9548;56.920;14.804;2023-03-13T03:57:41;0.50;99.90
18839;DHT22;9548;56.920;14.804;2023-03-13T04:00:09;0.50;99.90
18839;DHT22;9548;56.920;14.804;2023-03-13T04:02:39;0.50;99.90
18839;DHT22;9548;56.920;14.804;2023-03-13T04:05:06;0.50;99.90
18839;DHT22;9548;56.920;14.804;2023-03-13T04:07:33;0.50;99.90
18839;DHT22;9548;56.920;14.804;2023-03-13T04:10:01;0.50;99.90
18839;DHT22;9548;56.920;14.804;2023-03-13T04:12:28;0.50;99.90
18839;DHT22;9548;56.920;14.804;2023-03-13T04:14:55;0.60;99.90
18839;DHT22;9548;56.920;14.804;2023-03-13T04:17:23;0.50;99.90
18839;DHT22;9548;56.920;14.804;2023-03-13T04:19:49;0.60;99.90
18839;DHT22;9548;56.920;14.804;2023-03-13T04:22:16;0.60;99.90
18839;DHT22;9548;56.920;14.804;2023-03-13T04:24:43;0.60;99.90
18839;DHT22;9548;56.920;14.804;2023-03-13T04:27:11;0.70;99.90
18839;DHT22;9548;56.920;14.804;2023-03-13T04:29:38;0.70;99.90
18839;DHT22;9548;56.920;14.804;2023-03-13T04:32:06;0.70;99.90
18839;DHT22;9548;56.920;14.804;2023-03-13T04:34:33;0.70;99.90
18839;DHT22;9548;56.920;14.804;2023-03-13T04:36:59;0.70;99.90
18839;DHT22;9548;56.920;14.804;2023-03-13T04:39:26;0.80;99.90
18839;DHT22;9548;56.920;14.804;2023-03-13T04:41:54;0.80;99.90
18839;DHT22;9548;56.920;14.804;2023-03-13T04:44:22;0.80;99.90
18839;DHT22;9548;56.920;14.804;2023-03-13T04:46:49;0.80;99.90
18839;DHT22;9548;56.920;14.804;2023-03-13T04:49:16;0.80;99.90
18839;DHT22;9548;56.920;14.804;2023-03-13T04:51:44;0.90;99.90
18839;DHT22;9548;56.920;14.804;2023-03-13T04:54:11;0.90;99.90
18839;DHT22;9548;56.920;14.804;2023-03-13T04:56:38;0.90;99.90
18839;DHT22;9548;56.920;14.804;2023-03-13T04:59:05;0.90;99.90
18839;DHT22;9548;56.920;14.804;2023-03-13T05:01:33;0.90;99.90
18839;DHT22;9548;56.920;14.804;2023-03-13T05:04:00;0.90;99.90
18839;DHT22;9548;56.920;14.804;2023-03-13T05:06:27;0.90;99.90
18839;DHT22;9548;56.920;14.804;2023-03-13T05:08:54;0.90;99.90
18839;DHT22;9548;56.920;14.804;2023-03-13T05:11:22;0.90;99.90
18839;DHT22;9548;56.920;14.804;2023-03-13T05:13:49;0.90;99.90
18839;DHT22;9548;56.920;14.804;2023-03-13T05:16:16;0.90;99.90
18839;DHT22;9548;56.920;14.804;2023-03-13T05:18:44;0.90;99.90
18839;DHT22;9548;56.920;14.804;2023-03-13T05:21:11;0.90;99.90
18839;DHT22;9548;56.920;14.804;2023-03-13T05:23:38;0.90;99.90
18839;DHT22;9548;56.920;14.804;2023-03-13T05:26:05;0.90;99.90
18839;DHT22;9548;56.920;14.804;2023-03-13T05:28:32;0.90;99.90
18839;DHT22;9548;56.920;14.804;2023-03-13T05:30:59;0.90;99.90
18839;DHT22;9548;56.920;14.804;2023-03-13T05:33:26;0.90;99.90
18839;DHT22;9548;56.920;14.804;2023-03-13T05:35:54;0.90;99.90
18839;DHT22;9548;56.920;14.804;2023-03-13T05:38:21;0.90;99.90
18839;DHT22;9548;56.920;14.804;2023-03-13T05:40:48;1.00;99.90
18839;DHT22;9548;56.920;14.804;2023-03-13T05:43:15;1.00;99.90
18839;DHT22;9548;56.920;14.804;2023-03-13T05:45:42;1.00;99.90
18839;DHT22;9548;56.920;14.804;2023-03-13T05:48:09;1.00;99.90
18839;DHT22;9548;56.920;14.804;2023-03-13T05:50:36;1.00;99.90
18839;DHT22;9548;56.920;14.804;2023-03-13T05:53:04;1.00;99.90
18839;DHT22;9548;56.920;14.804;2023-03-13T05:55:31;1.00;99.90
18839;DHT22;9548;56.920;14.804;2023-03-13T05:57:58;1.00;99.90
18839;DHT22;9548;56.920;14.804;2023-03-13T06:00:25;1.10;99.90
18839;DHT22;9548;56.920;14.804;2023-03-13T06:02:52;1.00;99.90
18839;DHT22;9548;56.920;14.804;2023-03-13T06:05:18;1.10;99.90
18839;DHT22;9548;56.920;14.804;2023-03-13T06:07:46;1.10;99.90
18839;DHT22;9548;56.920;14.804;2023-03-13T06:10:16;1.10;99.90
18839;DHT22;9548;56.920;14.804;2023-03-13T06:12:43;1.10;99.90
18839;DHT22;9548;56.920;14.804;2023-03-13T06:15:10;1.10;99.90
18839;DHT22;9548;56.920;14.804;2023-03-13T06:17:37;1.20;99.90
18839;DHT22;9548;56.920;14.804;2023-03-13T06:20:05;1.20;99.90
18839;DHT22;9548;56.920;14.804;2023-03-13T06:22:32;1.20;99.90
18839;DHT22;9548;56.920;14.804;2023-03-13T06:24:59;1.20;99.90
18839;DHT22;9548;56.920;14.804;2023-03-13T06:27:28;1.20;99.90
18839;DHT22;9548;56.920;14.804;2023-03-13T06:29:54;1.30;99.90
18839;DHT22;9548;56.920;14.804;2023-03-13T06:32:21;1.30;99.90
18839;DHT22;9548;56.920;14.804;2023-03-13T06:34:48;1.30;99.90
18839;DHT22;9548;56.920;14.804;2023-03-13T06:37:15;1.30;99.90
18839;DHT22;9548;56.920;14.804;2023-03-13T06:39:42;1.30;99.90
18839;DHT22;9548;56.920;14.804;2023-03-13T06:42:09;1.40;99.90
18839;DHT22;9548;56.920;14.804;2023-03-13T06:44:37;1.40;99.90
18839;DHT22;9548;56.920;14.804;2023-03-13T06:47:06;1.40;99.90
18839;DHT22;9548;56.920;14.804;2023-03-13T06:49:33;1.40;99.90
18839;DHT22;9548;56.920;14.804;2023-03-13T06:52:00;1.50;99.90
18839;DHT22;9548;56.920;14.804;2023-03-13T06:54:27;1.50;99.90
18839;DHT22;9548;56.920;14.804;2023-03-13T06:56:53;1.50;99.90
18839;DHT22;9548;56.920;14.804;2023-03-13T06:59:20;1.50;99.90
18839;DHT22;9548;56.920;14.804;2023-03-13T07:01:49;1.50;99.90
18839;DHT22;9548;56.920;14.804;2023-03-13T07:04:16;1.60;99.90
18839;DHT22;9548;56.920;14.804;2023-03-13T07:06:43;1.60;99.90
18839;DHT22;9548;56.920;14.804;2023-03-13T07:09:10;1.60;99.90
18839;DHT22;9548;56.920;14.804;2023-03-13T07:11:37;1.60;99.90
18839;DHT22;9548;56.920;14.804;2023-03-13T07:14:04;1.60;99.90
18839;DHT22;9548;56.920;14.804;2023-03-13T07:16:31;1.70;99.90
18839;DHT22;9548;56.920;14.804;2023-03-13T07:18:59;1.80;99.90
18839;DHT22;9548;56.920;14.804;2023-03-13T07:21:26;1.80;99.90
18839;DHT22;9548;56.920;14.804;2023-03-13T07:23:53;1.80;99.90
18839;DHT22;9548;56.920;14.804;2023-03-13T07:26:20;1.80;99.90
18839;DHT22;9548;56.920;14.804;2023-03-13T07:28:46;1.90;99.90
18839;DHT22;9548;56.920;14.804;2023-03-13T07:31:15;1.90;99.90
18839;DHT22;9548;56.920;14.804;2023-03-13T07:33:42;1.90;99.90
18839;DHT22;9548;56.920;14.804;2023-03-13T07:36:13;2.00;99.90
18839;DHT22;9548;56.920;14.804;2023-03-13T07:38:40;2.00;99.90
18839;DHT22;9548;56.920;14.804;2023-03-13T07:41:10;2.00;99.90
18839;DHT22;9548;56.920;14.804;2023-03-13T07:43:37;2.10;99.90
18839;DHT22;9548;56.920;14.804;2023-03-13T07:46:06;2.00;99.90
18839;DHT22;9548;56.920;14.804;2023-03-13T07:48:35;2.10;99.90
18839;DHT22;9548;56.920;14.804;2023-03-13T07:51:03;2.10;99.90
18839;DHT22;9548;56.920;14.804;2023-03-13T07:53:33;2.20;99.90
18839;DHT22;9548;56.920;14.804;2023-03-13T07:56:01;2.20;99.90
18839;DHT22;9548;56.920;14.804;2023-03-13T07:58:30;2.30;99.90
18839;DHT22;9548;56.920;14.804;2023-03-13T08:00:57;2.30;99.90
18839;DHT22;9548;56.920;14.804;2023-03-13T08:03:25;2.30;99.90
18839;DHT22;9548;56.920;14.804;2023-03-13T08:05:59;2.40;99.90
18839;DHT22;9548;56.920;14.804;2023-03-13T08:08:27;2.40;99.90
18839;DHT22;9548;56.920;14.804;2023-03-13T08:11:00;2.50;99.90
18839;DHT22;9548;56.920;14.804;2023-03-13T08:13:27;2.50;99.90
18839;DHT22;9548;56.920;14.804;2023-03-13T08:16:02;2.50;99.90
18839;DHT22;9548;56.920;14.804;2023-03-13T08:18:29;2.50;99.90
18839;DHT22;9548;56.920;14.804;2023-03-13T08:21:00;2.50;99.90
18839;DHT22;9548;56.920;14.804;2023-03-13T08:23:28;2.50;99.90
18839;DHT22;9548;56.920;14.804;2023-03-13T08:25:55;2.60;99.90
18839;DHT22;9548;56.920;14.804;2023-03-13T08:28:23;2.70;99.90
18839;DHT22;9548;56.920;14.804;2023-03-13T08:30:50;2.70;99.90
18839;DHT22;9548;56.920;14.804;2023-03-13T08:33:17;2.70;99.90
18839;DHT22;9548;56.920;14.804;2023-03-13T08:35:44;2.70;99.90
18839;DHT22;9548;56.920;14.804;2023-03-13T08:38:11;2.70;99.90
18839;DHT22;9548;56.920;14.804;2023-03-13T08:40:37;2.70;99.90
18839;DHT22;9548;56.920;14.804;2023-03-13T08:43:04;2.70;99.90
18839;DHT22;9548;56.920;14.804;2023-03-13T08:45:33;2.70;99.90
18839;DHT22;9548;56.920;14.804;2023-03-13T08:48:00;2.80;99.90
18839;DHT22;9548;56.920;14.804;2023-03-13T08:50:27;2.80;99.90
18839;DHT22;9548;56.920;14.804;2023-03-13T08:52:54;2.80;99.90
18839;DHT22;9548;56.920;14.804;2023-03-13T08:55:21;2.80;99.90
18839;DHT22;9548;56.920;14.804;2023-03-13T08:57:48;2.90;99.90
18839;DHT22;9548;56.920;14.804;2023-03-13T09:00:16;2.90;99.90
18839;DHT22;9548;56.920;14.804;2023-03-13T09:02:45;2.90;99.90
18839;DHT22;9548;56.920;14.804;2023-03-13T09:05:11;3.00;99.90
18839;DHT22;9548;56.920;14.804;2023-03-13T09:07:38;3.00;99.90
18839;DHT22;9548;56.920;14.804;2023-03-13T09:10:06;3.10;99.90
18839;DHT22;9548;56.920;14.804;2023-03-13T09:12:33;3.10;99.90
18839;DHT22;9548;56.920;14.804;2023-03-13T09:15:00;3.10;99.90
18839;DHT22;9548;56.920;14.804;2023-03-13T09:17:27;3.20;99.90
18839;DHT22;9548;56.920;14.804;2023-03-13T09:19:55;3.20;99.90
18839;DHT22;9548;56.920;14.804;2023-03-13T09:22:22;3.30;99.90
18839;DHT22;9548;56.920;14.804;2023-03-13T09:24:49;3.30;99.90
18839;DHT22;9548;56.920;14.804;2023-03-13T09:27:16;3.40;99.90
18839;DHT22;9548;56.920;14.804;2023-03-13T09:29:43;3.50;99.90
18839;DHT22;9548;56.920;14.804;2023-03-13T09:32:10;3.60;99.90
18839;DHT22;9548;56.920;14.804;2023-03-13T09:34:37;3.60;99.90
18839;DHT22;9548;56.920;14.804;2023-03-13T09:37:05;3.80;99.90
18839;DHT22;9548;56.920;14.804;2023-03-13T09:39:33;3.90;99.90
18839;DHT22;9548;56.920;14.804;2023-03-13T09:42:04;4.10;99.90
18839;DHT22;9548;56.920;14.804;2023-03-13T09:44:39;4.20;99.90
18839;DHT22;9548;56.920;14.804;2023-03-13T09:47:11;4.30;99.90
18839;DHT22;9548;56.920;14.804;2023-03-13T09:49:42;4.40;99.90
18839;DHT22;9548;56.920;14.804;2023-03-13T09:52:17;4.40;99.90
18839;DHT22;9548;56.920;14.804;2023-03-13T09:54:48;4.40;99.90
18839;DHT22;9548;56.920;14.804;2023-03-13T09:57:21;4.40;99.90
18839;DHT22;9548;56.920;14.804;2023-03-13T09:59:52;4.40;99.90
18839;DHT22;9548;56.920;14.804;2023-03-13T10:02:26;4.50;99.90
18839;DHT22;9548;56.920;14.804;2023-03-13T10:04:59;4.50;99.90
18839;DHT22;9548;56.920;14.804;2023-03-13T10:07:29;4.50;99.90
18839;DHT22;9548;56.920;14.804;2023-03-13T10:09:57;4.60;99.90
18839;DHT22;9548;56.920;14.804;2023-03-13T10:12:26;4.70;99.90
18839;DHT22;9548;56.920;14.804;2023-03-13T10:15:02;4.80;99.90
18839;DHT22;9548;56.920;14.804;2023-03-13T10:17:35;4.80;99.90
18839;DHT22;9548;56.920;14.804;2023-03-13T10:20:20;4.80;99.90
18839;DHT22;9548;56.920;14.804;2023-03-13T10:22:50;4.80;99.90
18839;DHT22;9548;56.920;14.804;2023-03-13T10:25:27;4.80;99.90
18839;DHT22;9548;56.920;14.804;2023-03-13T10:27:55;4.80;99.90
18839;DHT22;9548;56.920;14.804;2023-03-13T10:30:25;4.80;99.90
18839;DHT22;9548;56.920;14.804;2023-03-13T10:32:58;4.80;99.90
18839;DHT22;9548;56.920;14.804;2023-03-13T10:35:31;4.70;99.90
18839;DHT22;9548;56.920;14.804;2023-03-13T10:38:03;4.70;99.90
18839;DHT22;9548;56.920;14.804;2023-03-13T10:40:31;4.70;99.90
18839;DHT22;9548;56.920;14.804;2023-03-13T10:43:03;4.70;99.90
18839;DHT22;9548;56.920;14.804;2023-03-13T10:45:34;4.60;99.90
18839;DHT22;9548;56.920;14.804;2023-03-13T10:48:03;4.70;99.90
18839;DHT22;9548;56.920;14.804;2023-03-13T10:50:36;4.60;99.90
18839;DHT22;9548;56.920;14.804;2023-03-13T10:53:23;4.70;99.90
18839;DHT22;9548;56.920;14.804;2023-03-13T10:55:52;4.60;99.90
18839;DHT22;9548;56.920;14.804;2023-03-13T10:58:22;4.60;99.90
18839;DHT22;9548;56.920;14.804;2023-03-13T11:00:49;4.70;99.90
18839;DHT22;9548;56.920;14.804;2023-03-13T11:03:18;4.70;99.90
18839;DHT22;9548;56.920;14.804;2023-03-13T11:05:55;4.60;99.90
18839;DHT22;9548;56.920;14.804;2023-03-13T11:08:25;4.60;99.90
18839;DHT22;9548;56.920;14.804;2023-03-13T11:10:55;4.60;99.90
18839;DHT22;9548;56.920;14.804;2023-03-13T11:13:34;4.60;99.90
18839;DHT22;9548;56.920;14.804;2023-03-13T11:16:09;4.60;99.90
18839;DHT22;9548;56.920;14.804;2023-03-13T11:18:47;4.50;99.90
18839;DHT22;9548;56.920;14.804;2023-03-13T11:21:22;4.50;99.90
18839;DHT22;9548;56.920;14.804;2023-03-13T11:24:01;4.40;99.90
18839;DHT22;9548;56.920;14.804;2023-03-13T11:26:34;4.50;99.90
18839;DHT22;9548;56.920;14.804;2023-03-13T11:29:08;4.40;99.90
18839;DHT22;9548;56.920;14.804;2023-03-13T11:31:39;4.40;99.90
18839;DHT22;9548;56.920;14.804;2023-03-13T11:34:14;4.50;99.90
18839;DHT22;9548;56.920;14.804;2023-03-13T11:36:52;4.40;99.90
18839;DHT22;9548;56.920;14.804;2023-03-13T11:39:46;4.50;99.90
18839;DHT22;9548;56.920;14.804;2023-03-13T11:42:33;4.50;99.90
18839;DHT22;9548;56.920;14.804;2023-03-13T11:45:10;4.50;99.90
18839;DHT22;9548;56.920;14.804;2023-03-13T11:47:44;4.50;99.90
18839;DHT22;9548;56.920;14.804;2023-03-13T11:50:27;4.50;99.90
18839;DHT22;9548;56.920;14.804;2023-03-13T11:53:10;4.50;99.90
18839;DHT22;9548;56.920;14.804;2023-03-13T11:56:06;4.60;99.90
18839;DHT22;9548;56.920;14.804;2023-03-13T11:58:55;4.60;99.90
18839;DHT22;9548;56.920;14.804;2023-03-13T12:01:27;4.60;99.90
18839;DHT22;9548;56.920;14.804;2023-03-13T12:03:57;4.60;99.90
18839;DHT22;9548;56.920;14.804;2023-03-13T12:06:28;4.60;99.90
18839;DHT22;9548;56.920;14.804;2023-03-13T12:09:01;4.60;99.90
18839;DHT22;9548;56.920;14.804;2023-03-13T12:11:34;4.60;99.90
18839;DHT22;9548;56.920;14.804;2023-03-13T12:14:12;4.60;99.90
18839;DHT22;9548;56.920;14.804;2023-03-13T12:16:43;4.70;99.90
18839;DHT22;9548;56.920;14.804;2023-03-13T12:19:13;4.70;99.90
18839;DHT22;9548;56.920;14.804;2023-03-13T12:21:46;4.70;99.90
18839;DHT22;9548;56.920;14.804;2023-03-13T12:24:20;4.70;99.90
18839;DHT22;9548;56.920;14.804;2023-03-13T12:26:53;4.80;99.90
18839;DHT22;9548;56.920;14.804;2023-03-13T12:29:31;4.80;99.90
18839;DHT22;9548;56.920;14.804;2023-03-13T12:32:06;4.90;99.90
18839;DHT22;9548;56.920;14.804;2023-03-13T12:34:40;4.90;99.90
18839;DHT22;9548;56.920;14.804;2023-03-13T12:37:12;5.00;99.90
18839;DHT22;9548;56.920;14.804;2023-03-13T12:39:42;5.00;99.90
18839;DHT22;9548;56.920;14.804;2023-03-13T12:42:25;5.00;99.90
18839;DHT22;9548;56.920;14.804;2023-03-13T12:44:55;5.00;99.90
18839;DHT22;9548;56.920;14.804;2023-03-13T12:47:28;5.10;99.90
18839;DHT22;9548;56.920;14.804;2023-03-13T12:50:17;5.20;99.90
18839;DHT22;9548;56.920;14.804;2023-03-13T12:52:59;5.20;99.90
18839;DHT22;9548;56.920;14.804;2023-03-13T12:55:43;5.40;99.90
18839;DHT22;9548;56.920;14.804;2023-03-13T12:58:20;5.40;99.90
18839;DHT22;9548;56.920;14.804;2023-03-13T13:00:52;5.40;99.90
18839;DHT22;9548;56.920;14.804;2023-03-13T13:03:26;5.40;99.90
18839;DHT22;9548;56.920;14.804;2023-03-13T13:06:01;5.40;99.90
18839;DHT22;9548;56.920;14.804;2023-03-13T13:08:34;5.40;99.90
18839;DHT22;9548;56.920;14.804;2023-03-13T13:17:24;5.50;99.90
18839;DHT22;9548;56.920;14.804;2023-03-13T13:19:53;5.40;99.90
18839;DHT22;9548;56.920;14.804;2023-03-13T13:22:44;5.50;99.90
18839;DHT22;9548;56.920;14.804;2023-03-13T13:25:30;5.50;99.90
18839;DHT22;9548;56.920;14.804;2023-03-13T13:28:18;5.50;99.90
18839;DHT22;9548;56.920;14.804;2023-03-13T13:30:47;5.50;99.90
18839;DHT22;9548;56.920;14.804;2023-03-13T13:33:43;5.60;99.90
18839;DHT22;9548;56.920;14.804;2023-03-13T13:36:29;5.70;99.90
18839;DHT22;9548;56.920;14.804;2023-03-13T13:38:57;5.70;99.90
18839;DHT22;9548;56.920;14.804;2023-03-13T13:41:34;5.80;99.90
18839;DHT22;9548;56.920;14.804;2023-03-13T13:44:23;5.80;99.90
18839;DHT22;9548;56.920;14.804;2023-03-13T13:46:52;5.80;99.90
18839;DHT22;9548;56.920;14.804;2023-03-13T13:49:22;5.80;99.90
18839;DHT22;9548;56.920;14.804;2023-03-13T13:54:58;5.70;99.90
18839;DHT22;9548;56.920;14.804;2023-03-13T13:57:28;5.70;99.90
18839;DHT22;9548;56.920;14.804;2023-03-13T14:00:00;5.70;99.90
18839;DHT22;9548;56.920;14.804;2023-03-13T14:02:33;5.70;99.90
18839;DHT22;9548;56.920;14.804;2023-03-13T14:05:04;5.70;99.90
18839;DHT22;9548;56.920;14.804;2023-03-13T14:07:47;5.60;99.90
18839;DHT22;9548;56.920;14.804;2023-03-13T14:10:27;5.60;99.90
18839;DHT22;9548;56.920;14.804;2023-03-13T14:12:56;5.60;99.90
18839;DHT22;9548;56.920;14.804;2023-03-13T14:15:24;5.60;99.90
18839;DHT22;9548;56.920;14.804;2023-03-13T14:17:53;5.60;99.90
18839;DHT22;9548;56.920;14.804;2023-03-13T14:20:25;5.60;99.90
18839;DHT22;9548;56.920;14.804;2023-03-13T14:22:54;5.70;99.90
18839;DHT22;9548;56.920;14.804;2023-03-13T14:25:22;5.70;99.90
18839;DHT22;9548;56.920;14.804;2023-03-13T14:27:49;5.70;99.90
18839;DHT22;9548;56.920;14.804;2023-03-13T14:30:18;5.80;99.90
18839;DHT22;9548;56.920;14.804;2023-03-13T14:32:46;5.80;99.90
18839;DHT22;9548;56.920;14.804;2023-03-13T14:35:14;5.90;99.90
18839;DHT22;9548;56.920;14.804;2023-03-13T14:37:45;6.00;99.90
18839;DHT22;9548;56.920;14.804;2023-03-13T14:40:20;6.10;99.90
18839;DHT22;9548;56.920;14.804;2023-03-13T14:42:50;6.10;99.90
18839;DHT22;9548;56.920;14.804;2023-03-13T14:45:23;6.20;99.90
18839;DHT22;9548;56.920;14.804;2023-03-13T14:47:50;6.20;99.90
18839;DHT22;9548;56.920;14.804;2023-03-13T14:50:19;6.30;99.90
18839;DHT22;9548;56.920;14.804;2023-03-13T14:52:49;6.40;99.90
18839;DHT22;9548;56.920;14.804;2023-03-13T14:55:30;6.50;99.90
18839;DHT22;9548;56.920;14.804;2023-03-13T14:57:59;6.60;99.90
18839;DHT22;9548;56.920;14.804;2023-03-13T15:00:44;6.80;99.90
18839;DHT22;9548;56.920;14.804;2023-03-13T15:03:24;6.90;99.90
18839;DHT22;9548;56.920;14.804;2023-03-13T15:06:20;7.00;99.90
18839;DHT22;9548;56.920;14.804;2023-03-13T15:09:13;7.10;99.90
18839;DHT22;9548;56.920;14.804;2023-03-13T15:11:42;7.20;99.90
18839;DHT22;9548;56.920;14.804;2023-03-13T15:14:35;7.50;99.90
18839;DHT22;9548;56.920;14.804;2023-03-13T15:17:04;7.40;99.90
18839;DHT22;9548;56.920;14.804;2023-03-13T15:19:35;7.50;99.90
18839;DHT22;9548;56.920;14.804;2023-03-13T15:22:02;7.50;99.90
18839;DHT22;9548;56.920;14.804;2023-03-13T15:24:30;7.50;99.90
18839;DHT22;9548;56.920;14.804;2023-03-13T15:26:57;7.50;99.90
18839;DHT22;9548;56.920;14.804;2023-03-13T15:29:24;7.50;99.90
18839;DHT22;9548;56.920;14.804;2023-03-13T15:31:51;7.50;99.90
18839;DHT22;9548;56.920;14.804;2023-03-13T15:34:18;7.50;99.90
18839;DHT22;9548;56.920;14.804;2023-03-13T15:36:50;7.50;99.90
18839;DHT22;9548;56.920;14.804;2023-03-13T15:39:17;7.50;99.90
18839;DHT22;9548;56.920;14.804;2023-03-13T15:41:46;7.50;99.90
18839;DHT22;9548;56.920;14.804;2023-03-13T15:44:13;7.50;99.90
18839;DHT22;9548;56.920;14.804;2023-03-13T15:46:40;7.50;99.90
18839;DHT22;9548;56.920;14.804;2023-03-13T15:49:09;7.50;99.90
18839;DHT22;9548;56.920;14.804;2023-03-13T15:51:37;7.50;99.90
18839;DHT22;9548;56.920;14.804;2023-03-13T15:54:04;7.60;99.90
18839;DHT22;9548;56.920;14.804;2023-03-13T15:56:34;7.60;99.90
18839;DHT22;9548;56.920;14.804;2023-03-13T15:59:08;7.60;99.90
18839;DHT22;9548;56.920;14.804;2023-03-13T16:01:35;7.60;99.90
18839;DHT22;9548;56.920;14.804;2023-03-13T16:04:02;7.60;99.90
18839;DHT22;9548;56.920;14.804;2023-03-13T16:06:29;7.60;99.90
18839;DHT22;9548;56.920;14.804;2023-03-13T16:08:57;7.60;99.90
18839;DHT22;9548;56.920;14.804;2023-03-13T16:11:25;7.60;99.90